Airfield :
LOGIN :

Register | Disclaimer

   EN    FR    IT 

 










Legend :    VFR   Marginal VFR   IFR   Intensive IFR   Very Intensive IFR
Visi :
Ceiling :
>= 8 km
>= 3000ft
5 to 8 km
1000 to 3000 ft
1500m to 5 km
500 to 1000 ft
800 to 1500m
200 to 500 ft
< 800m
< 200 ft
Symbols :   Thunderstorms  Fog  Heavy snow  Heavy precipitations  Wind > 20 kt
SIGMETs :     Misc.  Thunderstorms  Icing  Turbulence  Mountain Waves  Volcanic Ashes






- Airport Elevation : 778 ft
- IATA code : BRQ


LKTB - Brno-Turany

CURRENT METAR :
  • 030230Z 00000KT CAVOK M01/M02 Q1032 NOSIG

EXPIRED METARs :
  • 030200Z 00000KT CAVOK M01/M02 Q1032 NOSIG
  • 030130Z VRB01KT CAVOK M01/M02 Q1032 NOSIG
  • 030100Z VRB02KT CAVOK 00/M01 Q1032 NOSIG
  • 030030Z 31004KT CAVOK 00/M01 Q1032 NOSIG
  • 030000Z 32003KT CAVOK 00/M01 Q1032 NOSIG

TAF TAF LKTB
Valid from the 03 at 00:00 until the 04 at 06:00 UTC


022300Z 0300/0406 VRB02KT CAVOK
BECMG 0301/0303 3000 BR SCT005
PROB40
TEMPO 0303/0308 1200 BR BKN004
BECMG 0308/0310 20006KT CAVOK
BECMG 0322/0400 2000 BR SCT003
PROB30
TEMPO 0400/0406 0500 FZFG BKN001



MET'MAP, your aeronautical weather chart ! - Copyright ORBIFLY December 2007 - Disclaimer

ORBIFLY MET'MAP TEAM :

Programming & Development : Alexandra Zaïnal
Concept & original design : Baudouin d'Aumeries
Assistance for programming : Marc-Olivier Méhu
Technical & hardware support : Manuel Goepfert

Contact : metmap@orbifly.com




SOURCES & CREDITS :

   NOAA